Time,TemperatureF,DewpointF,PressureIn,WindDirection,WindDirectionDegrees,WindSpeedMPH,WindSpeedGustMPH,Humidity,HourlyPrecipIn,Conditions,Clouds,dailyrainin,SoftwareType,DateUTC
2013-07-03 00:00:00,74.8,64.4,30.00,ENE,68,1.0,1.0,70,0.00,,,0.00,Wunderground v.1.15,2013-07-03 05:00:00,
2013-07-03 00:05:00,74.9,64.5,30.00,ENE,68,0.0,1.0,70,0.00,,,0.00,Wunderground v.1.15,2013-07-03 05:05:00,
2013-07-03 00:15:00,74.9,64.0,30.00,ENE,68,1.0,1.0,69,0.00,,,0.00,Wunderground v.1.15,2013-07-03 05:15:00,
2013-07-03 00:20:00,74.8,64.4,30.00,ENE,68,0.0,0.0,70,0.00,,,0.00,Wunderground v.1.15,2013-07-03 05:20:00,
2013-07-03 00:25:00,74.7,64.3,30.00,NNE,21,1.0,1.0,70,0.00,,,0.00,Wunderground v.1.15,2013-07-03 05:25:00,
2013-07-03 00:30:00,74.7,64.3,30.00,ENE,68,1.0,1.0,70,0.00,,,0.00,Wunderground v.1.15,2013-07-03 05:30:00,
2013-07-03 00:35:00,74.7,64.3,29.99,NE,44,0.0,1.0,70,0.00,,,0.00,Wunderground v.1.15,2013-07-03 05:35:00,
2013-07-03 00:45:00,74.5,64.5,29.99,ENE,62,1.0,1.0,71,0.00,,,0.00,Wunderground v.1.15,2013-07-03 05:45:00,
2013-07-03 00:50:00,74.2,65.0,29.99,East,98,1.0,1.0,73,0.00,,,0.00,Wunderground v.1.15,2013-07-03 05:50:00,
2013-07-03 00:55:00,74.1,64.9,29.99,ENE,65,1.0,1.0,73,0.00,,,0.00,Wunderground v.1.15,2013-07-03 05:55:00,
2013-07-03 01:00:00,74.2,65.0,29.99,ENE,75,1.0,2.0,73,0.00,,,0.00,Wunderground v.1.15,2013-07-03 06:00:00,
2013-07-03 01:05:00,74.1,64.9,29.99,East,80,1.0,2.0,73,0.00,,,0.00,Wunderground v.1.15,2013-07-03 06:05:00,
2013-07-03 01:10:00,74.0,64.8,29.99,East,79,0.0,2.0,73,0.00,,,0.00,Wunderground v.1.15,2013-07-03 06:10:00,
2013-07-03 01:20:00,74.1,64.5,29.99,NE,38,1.0,1.0,72,0.00,,,0.00,Wunderground v.1.15,2013-07-03 06:20:00,
2013-07-03 01:25:00,74.1,64.5,29.99,NE,56,0.0,2.0,72,0.00,,,0.00,Wunderground v.1.15,2013-07-03 06:25:00,
2013-07-03 01:31:00,74.1,64.5,29.99,NE,56,0.0,2.0,72,0.00,,,0.00,Wunderground v.1.15,2013-07-03 06:31:00,
2013-07-03 01:35:00,74.1,64.9,29.99,NE,56,0.0,2.0,73,0.00,,,0.00,Wunderground v.1.15,2013-07-03 06:35:00,
2013-07-03 01:40:00,73.9,65.1,29.99,ENE,63,1.0,1.0,74,0.00,,,0.00,Wunderground v.1.15,2013-07-03 06:40:00,
2013-07-03 01:45:00,73.6,65.2,29.99,ENE,62,1.0,2.0,75,0.00,,,0.00,Wunderground v.1.15,2013-07-03 06:45:00,
2013-07-03 01:55:00,73.4,65.0,29.99,ENE,65,0.0,2.0,75,0.00,,,0.00,Wunderground v.1.15,2013-07-03 06:55:00,
2013-07-03 02:00:00,73.4,65.0,29.99,ENE,62,0.0,2.0,75,0.00,,,0.00,Wunderground v.1.15,2013-07-03 07:00:00,
2013-07-03 02:05:00,73.6,65.2,29.99,ENE,72,0.0,2.0,75,0.00,,,0.00,Wunderground v.1.15,2013-07-03 07:05:00,
2013-07-03 02:10:00,73.5,64.7,29.99,NE,41,1.0,2.0,74,0.00,,,0.00,Wunderground v.1.15,2013-07-03 07:10:00,
2013-07-03 02:20:00,73.5,65.1,29.99,NE,41,0.0,2.0,75,0.00,,,0.00,Wunderground v.1.15,2013-07-03 07:20:00,
2013-07-03 02:25:00,73.3,64.9,29.99,NE,41,0.0,2.0,75,0.00,,,0.00,Wunderground v.1.15,2013-07-03 07:25:00,
2013-07-03 02:40:00,72.9,65.3,29.99,NNE,18,0.0,2.0,77,0.00,,,0.00,Wunderground v.1.15,2013-07-03 07:40:00,
2013-07-03 02:45:00,72.7,66.5,29.98,NNE,18,0.0,2.0,81,0.00,,,0.00,Wunderground v.1.15,2013-07-03 07:45:00,
2013-07-03 02:50:00,72.3,67.2,29.98,NNE,18,0.0,2.0,84,0.00,,,0.00,Wunderground v.1.15,2013-07-03 07:50:00,
2013-07-03 02:55:00,71.6,66.5,29.98,NNE,18,0.0,2.0,84,0.00,,,0.00,Wunderground v.1.15,2013-07-03 07:55:00,
2013-07-03 03:00:00,71.4,65.6,29.98,NNE,13,0.0,2.0,82,0.00,,,0.00,Wunderground v.1.15,2013-07-03 08:00:00,
2013-07-03 03:05:00,71.5,65.4,29.98,North,8,1.0,2.0,81,0.00,,,0.00,Wunderground v.1.15,2013-07-03 08:05:00,
2013-07-03 03:10:00,71.5,65.4,29.98,North,10,1.0,2.0,81,0.00,,,0.00,Wunderground v.1.15,2013-07-03 08:10:00,
2013-07-03 03:20:00,71.4,65.3,29.98,North,357,1.0,2.0,81,0.00,,,0.00,Wunderground v.1.15,2013-07-03 08:20:00,
2013-07-03 03:25:00,71.4,65.3,29.98,NNW,340,1.0,2.0,81,0.00,,,0.00,Wunderground v.1.15,2013-07-03 08:25:00,
2013-07-03 03:30:00,71.5,65.4,29.98,NNW,343,0.0,2.0,81,0.00,,,0.00,Wunderground v.1.15,2013-07-03 08:30:00,
2013-07-03 03:40:00,71.6,65.8,29.98,NNW,343,0.0,2.0,82,0.00,,,0.00,Wunderground v.1.15,2013-07-03 08:40:00,
2013-07-03 03:45:00,71.4,66.3,29.98,NNW,343,0.0,2.0,84,0.00,,,0.00,Wunderground v.1.15,2013-07-03 08:45:00,
2013-07-03 03:50:00,71.0,66.3,29.98,NNW,343,0.0,2.0,85,0.00,,,0.00,Wunderground v.1.15,2013-07-03 08:50:00,
2013-07-03 03:55:00,70.7,65.6,29.98,NNW,343,0.0,2.0,84,0.00,,,0.00,Wunderground v.1.15,2013-07-03 08:55:00,
2013-07-03 04:00:00,70.7,65.3,29.98,NNW,343,0.0,2.0,83,0.00,,,0.00,Wunderground v.1.15,2013-07-03 09:00:00,
2013-07-03 04:05:00,70.7,65.3,29.98,NNW,343,0.0,2.0,83,0.00,,,0.00,Wunderground v.1.15,2013-07-03 09:05:00,
2013-07-03 04:10:00,70.5,65.1,29.98,NNW,343,0.0,2.0,83,0.00,,,0.00,Wunderground v.1.15,2013-07-03 09:10:00,
2013-07-03 04:15:00,70.5,65.1,29.98,NNW,343,0.0,2.0,83,0.00,,,0.00,Wunderground v.1.15,2013-07-03 09:15:00,
2013-07-03 04:20:00,70.5,65.1,29.98,NNW,342,0.0,2.0,83,0.00,,,0.00,Wunderground v.1.15,2013-07-03 09:20:00,
2013-07-03 04:30:00,70.6,66.5,29.98,NNW,342,0.0,2.0,87,0.00,,,0.00,Wunderground v.1.15,2013-07-03 09:30:00,
2013-07-03 04:35:00,70.0,66.3,29.98,NNW,344,0.0,2.0,88,0.00,,,0.00,Wunderground v.1.15,2013-07-03 09:35:00,
2013-07-03 04:45:00,69.2,65.5,29.98,NNW,344,0.0,2.0,88,0.00,,,0.00,Wunderground v.1.15,2013-07-03 09:45:00,
2013-07-03 04:55:00,69.1,65.7,29.98,NNW,344,0.0,2.0,89,0.00,,,0.00,Wunderground v.1.15,2013-07-03 09:55:00,
2013-07-03 05:00:00,68.9,65.2,29.98,North,352,0.0,2.0,88,0.00,,,0.00,Wunderground v.1.15,2013-07-03 10:00:00,
2013-07-03 05:10:00,69.7,65.0,29.98,North,5,1.0,1.0,85,0.00,,,0.00,Wunderground v.1.15,2013-07-03 10:10:00,
2013-07-03 05:15:00,69.9,64.8,29.98,NNE,13,1.0,2.0,84,0.00,,,0.00,Wunderground v.1.15,2013-07-03 10:15:00,
2013-07-03 05:20:00,70.1,65.7,29.98,SE,125,1.0,2.0,86,0.00,,,0.00,Wunderground v.1.15,2013-07-03 10:20:00,
2013-07-03 05:30:00,69.1,65.1,29.98,SE,129,0.0,2.0,87,0.00,,,0.00,Wunderground v.1.15,2013-07-03 10:30:00,
2013-07-03 05:35:00,69.2,65.2,29.98,ESE,123,0.0,2.0,87,0.00,,,0.00,Wunderground v.1.15,2013-07-03 10:35:00,
2013-07-03 05:40:00,68.7,65.3,29.98,ESE,120,1.0,1.0,89,0.00,,,0.00,Wunderground v.1.15,2013-07-03 10:40:00,
2013-07-03 05:45:00,68.5,65.1,29.99,SE,141,1.0,2.0,89,0.00,,,0.00,Wunderground v.1.15,2013-07-03 10:45:00,
2013-07-03 05:50:00,68.8,65.1,29.99,SE,125,1.0,1.0,88,0.00,,,0.00,Wunderground v.1.15,2013-07-03 10:50:00,
2013-07-03 05:55:00,69.0,65.0,29.99,SE,125,0.0,2.0,87,0.00,,,0.00,Wunderground v.1.15,2013-07-03 10:55:00,
2013-07-03 06:05:00,69.2,64.8,29.99,North,8,0.0,2.0,86,0.00,,,0.00,Wunderground v.1.15,2013-07-03 11:05:00,
2013-07-03 06:10:00,69.3,64.6,29.99,NNW,348,1.0,1.0,85,0.00,,,0.00,Wunderground v.1.15,2013-07-03 11:10:00,
2013-07-03 06:15:00,69.3,64.6,29.99,North,2,1.0,2.0,85,0.00,,,0.00,Wunderground v.1.15,2013-07-03 11:15:00,
2013-07-03 06:25:00,69.5,64.8,29.99,NNE,15,1.0,2.0,85,0.00,,,0.00,Wunderground v.1.15,2013-07-03 11:25:00,
2013-07-03 06:30:00,69.8,65.1,29.99,NNE,16,1.0,1.0,85,0.00,,,0.00,Wunderground v.1.15,2013-07-03 11:30:00,
2013-07-03 06:35:00,70.0,64.9,29.99,ENE,72,1.0,2.0,84,0.00,,,0.00,Wunderground v.1.15,2013-07-03 11:35:00,
2013-07-03 06:40:00,70.2,65.1,29.99,ENE,67,1.0,2.0,84,0.00,,,0.00,Wunderground v.1.15,2013-07-03 11:40:00,
2013-07-03 06:45:00,70.4,65.3,29.99,ENE,76,1.0,2.0,84,0.00,,,0.00,Wunderground v.1.15,2013-07-03 11:45:00,
2013-07-03 06:55:00,70.9,65.5,29.99,North,3,2.0,2.0,83,0.00,,,0.00,Wunderground v.1.15,2013-07-03 11:55:00,
2013-07-03 07:00:00,71.3,65.5,29.99,ENE,58,2.0,2.0,82,0.00,,,0.00,Wunderground v.1.15,2013-07-03 12:00:00,
2013-07-03 07:05:00,71.8,65.7,29.99,North,352,3.0,3.0,81,0.00,,,0.00,Wunderground v.1.15,2013-07-03 12:05:00,
2013-07-03 07:10:00,72.3,65.8,29.99,NE,42,3.0,3.0,80,0.00,,,0.00,Wunderground v.1.15,2013-07-03 12:10:00,
2013-07-03 07:15:00,72.6,65.7,29.99,ENE,70,2.0,3.0,79,0.00,,,0.00,Wunderground v.1.15,2013-07-03 12:15:00,
2013-07-03 07:20:00,73.0,66.1,30.00,NNE,30,2.0,2.0,79,0.00,,,0.00,Wunderground v.1.15,2013-07-03 12:20:00,
2013-07-03 07:30:00,73.5,66.2,30.00,NE,43,3.0,3.0,78,0.00,,,0.00,Wunderground v.1.15,2013-07-03 12:30:00,
2013-07-03 07:35:00,74.0,66.0,30.00,ENE,68,2.0,3.0,76,0.00,,,0.00,Wunderground v.1.15,2013-07-03 12:35:00,
2013-07-03 07:40:00,74.4,66.3,30.01,North,8,1.0,2.0,76,0.00,,,0.00,Wunderground v.1.15,2013-07-03 12:40:00,
2013-07-03 07:45:00,74.6,66.5,30.01,NE,34,2.0,2.0,76,0.00,,,0.00,Wunderground v.1.15,2013-07-03 12:45:00,
2013-07-03 07:50:00,75.0,66.5,30.01,ENE,71,2.0,2.0,75,0.00,,,0.00,Wunderground v.1.15,2013-07-03 12:50:00,
2013-07-03 08:00:00,75.4,66.5,30.01,East,99,4.0,4.0,74,0.00,,,0.00,Wunderground v.1.15,2013-07-03 13:00:00,
2013-07-03 08:05:00,75.8,66.5,30.01,NE,45,3.0,4.0,73,0.00,,,0.00,Wunderground v.1.15,2013-07-03 13:05:00,
2013-07-03 08:10:00,76.1,66.8,30.01,NE,47,3.0,5.0,73,0.00,,,0.00,Wunderground v.1.15,2013-07-03 13:10:00,
2013-07-03 08:15:00,76.4,66.7,30.01,East,86,3.0,5.0,72,0.00,,,0.00,Wunderground v.1.15,2013-07-03 13:15:00,
2013-07-03 08:25:00,77.0,67.3,30.01,NNE,18,3.0,4.0,72,0.00,,,0.00,Wunderground v.1.15,2013-07-03 13:25:00,
2013-07-03 08:35:00,77.3,68.0,30.02,ENE,65,3.0,5.0,73,0.00,,,0.00,Wunderground v.1.15,2013-07-03 13:35:00,
2013-07-03 08:40:00,77.5,68.2,30.02,SE,136,4.0,4.0,73,0.00,,,0.00,Wunderground v.1.15,2013-07-03 13:40:00,
2013-07-03 08:45:00,77.7,68.4,30.02,ESE,108,4.0,4.0,73,0.00,,,0.00,Wunderground v.1.15,2013-07-03 13:45:00,
2013-07-03 08:50:00,78.0,68.2,30.02,NE,44,4.0,4.0,72,0.00,,,0.00,Wunderground v.1.15,2013-07-03 13:50:00,
2013-07-03 08:55:00,78.5,67.9,30.02,East,86,3.0,4.0,70,0.00,,,0.00,Wunderground v.1.15,2013-07-03 13:55:00,
2013-07-03 09:00:00,79.0,68.0,30.02,NE,50,3.0,6.0,69,0.00,,,0.00,Wunderground v.1.15,2013-07-03 14:00:00,
2013-07-03 09:10:00,79.8,67.9,30.02,North,8,4.0,4.0,67,0.00,,,0.00,Wunderground v.1.15,2013-07-03 14:10:00,
2013-07-03 09:15:00,79.9,68.0,30.02,ESE,122,5.0,5.0,67,0.00,,,0.00,Wunderground v.1.15,2013-07-03 14:15:00,
2013-07-03 09:25:00,80.7,67.4,30.02,ESE,105,5.0,6.0,64,0.00,,,0.00,Wunderground v.1.15,2013-07-03 14:25:00,
2013-07-03 09:30:00,81.0,67.7,30.02,East,88,5.0,6.0,64,0.00,,,0.00,Wunderground v.1.15,2013-07-03 14:30:00,
2013-07-03 09:35:00,81.5,67.2,30.02,ESE,117,5.0,6.0,62,0.00,,,0.00,Wunderground v.1.15,2013-07-03 14:35:00,
2013-07-03 09:40:00,81.4,66.7,30.03,ENE,57,6.0,6.0,61,0.00,,,0.00,Wunderground v.1.15,2013-07-03 14:40:00,
2013-07-03 09:50:00,82.2,67.9,30.03,ENE,75,5.0,8.0,62,0.00,,,0.00,Wunderground v.1.15,2013-07-03 14:50:00,
2013-07-03 09:55:00,82.1,66.8,30.03,ENE,77,5.0,8.0,60,0.00,,,0.00,Wunderground v.1.15,2013-07-03 14:55:00,
2013-07-03 10:00:00,82.1,66.8,30.03,East,94,6.0,6.0,60,0.00,,,0.00,Wunderground v.1.15,2013-07-03 15:00:00,
2013-07-03 10:05:00,82.5,67.7,30.03,ENE,77,5.0,6.0,61,0.00,,,0.00,Wunderground v.1.15,2013-07-03 15:05:00,
2013-07-03 10:10:00,82.7,67.9,30.03,ENE,57,5.0,7.0,61,0.00,,,0.00,Wunderground v.1.15,2013-07-03 15:10:00,
2013-07-03 10:15:00,83.1,67.8,30.02,ESE,116,5.0,7.0,60,0.00,,,0.00,Wunderground v.1.15,2013-07-03 15:15:00,
2013-07-03 10:20:00,83.3,68.4,30.02,ENE,61,5.0,6.0,61,0.00,,,0.00,Wunderground v.1.15,2013-07-03 15:20:00,
2013-07-03 10:25:00,83.7,67.8,30.02,NNE,24,5.0,8.0,59,0.00,,,0.00,Wunderground v.1.15,2013-07-03 15:25:00,
2013-07-03 10:30:00,83.7,67.4,30.02,ENE,57,6.0,6.0,58,0.00,,,0.00,Wunderground v.1.15,2013-07-03 15:30:00,
2013-07-03 10:35:00,83.9,66.5,30.02,ESE,103,7.0,7.0,56,0.00,,,0.00,Wunderground v.1.15,2013-07-03 15:35:00,
2013-07-03 10:40:00,84.4,67.5,30.02,NE,46,6.0,6.0,57,0.00,,,0.00,Wunderground v.1.15,2013-07-03 15:40:00,
2013-07-03 10:50:00,84.3,67.4,30.02,East,96,7.0,7.0,57,0.00,,,0.00,Wunderground v.1.15,2013-07-03 15:50:00,
2013-07-03 10:55:00,84.5,67.6,30.02,East,82,7.0,9.0,57,0.00,,,0.00,Wunderground v.1.15,2013-07-03 15:55:00,
2013-07-03 11:00:00,84.6,68.2,30.02,ESE,108,7.0,8.0,58,0.00,,,0.00,Wunderground v.1.15,2013-07-03 16:00:00,
2013-07-03 11:05:00,84.9,69.0,30.02,ESE,107,6.0,8.0,59,0.00,,,0.00,Wunderground v.1.15,2013-07-03 16:05:00,
2013-07-03 11:10:00,85.6,69.1,30.02,NE,39,6.0,7.0,58,0.00,,,0.00,Wunderground v.1.15,2013-07-03 16:10:00,
2013-07-03 11:15:00,85.3,68.8,30.02,NE,53,6.0,7.0,58,0.00,,,0.00,Wunderground v.1.15,2013-07-03 16:15:00,
2013-07-03 11:20:00,85.0,67.5,30.02,ENE,69,6.0,6.0,56,0.00,,,0.00,Wunderground v.1.15,2013-07-03 16:20:00,
2013-07-03 11:25:00,85.0,68.6,30.01,East,84,7.0,7.0,58,0.00,,,0.00,Wunderground v.1.15,2013-07-03 16:25:00,
2013-07-03 11:30:00,85.2,68.8,30.01,NNE,32,6.0,6.0,58,0.00,,,0.00,Wunderground v.1.15,2013-07-03 16:30:00,
2013-07-03 11:35:00,85.4,68.4,30.01,ESE,115,6.0,13.0,57,0.00,,,0.00,Wunderground v.1.15,2013-07-03 16:35:00,
2013-07-03 11:40:00,85.3,68.3,30.01,ENE,72,7.0,8.0,57,0.00,,,0.00,Wunderground v.1.15,2013-07-03 16:40:00,
2013-07-03 11:45:00,85.6,68.6,30.01,ENE,65,7.0,8.0,57,0.00,,,0.00,Wunderground v.1.15,2013-07-03 16:45:00,
2013-07-03 11:55:00,85.9,67.9,30.01,ENE,74,6.0,7.0,55,0.00,,,0.00,Wunderground v.1.15,2013-07-03 16:55:00,
2013-07-03 12:05:00,86.4,68.3,30.01,East,91,5.0,8.0,55,0.00,,,0.00,Wunderground v.1.15,2013-07-03 17:05:00,
2013-07-03 12:10:00,87.0,68.3,30.01,East,98,5.0,5.0,54,0.00,,,0.00,Wunderground v.1.15,2013-07-03 17:10:00,
2013-07-03 12:15:00,87.5,67.1,30.01,East,92,4.0,8.0,51,0.00,,,0.00,Wunderground v.1.15,2013-07-03 17:15:00,
2013-07-03 12:20:00,87.2,65.7,30.01,ESE,120,5.0,5.0,49,0.00,,,0.00,Wunderground v.1.15,2013-07-03 17:20:00,
2013-07-03 12:25:00,87.4,66.5,30.01,North,7,6.0,6.0,50,0.00,,,0.00,Wunderground v.1.15,2013-07-03 17:25:00,
2013-07-03 12:35:00,87.3,66.4,30.01,ENE,68,6.0,8.0,50,0.00,,,0.00,Wunderground v.1.15,2013-07-03 17:35:00,
2013-07-03 12:45:00,87.4,67.6,30.00,East,101,6.0,6.0,52,0.00,,,0.00,Wunderground v.1.15,2013-07-03 17:45:00,
2013-07-03 12:50:00,88.3,67.3,30.00,NE,51,5.0,5.0,50,0.00,,,0.00,Wunderground v.1.15,2013-07-03 17:50:00,
2013-07-03 12:55:00,87.9,66.4,30.00,ENE,60,5.0,6.0,49,0.00,,,0.00,Wunderground v.1.15,2013-07-03 17:55:00,
2013-07-03 13:00:00,88.2,67.2,30.00,ENE,73,5.0,8.0,50,0.00,,,0.00,Wunderground v.1.15,2013-07-03 18:00:00,
2013-07-03 13:05:00,88.2,66.6,30.00,East,82,5.0,8.0,49,0.00,,,0.00,Wunderground v.1.15,2013-07-03 18:05:00,
2013-07-03 13:10:00,88.3,67.3,30.00,East,95,5.0,5.0,50,0.00,,,0.00,Wunderground v.1.15,2013-07-03 18:10:00,
2013-07-03 13:20:00,88.6,63.9,30.00,East,84,5.0,6.0,44,0.00,,,0.00,Wunderground v.1.15,2013-07-03 18:20:00,
2013-07-03 13:25:00,88.2,64.2,30.00,East,80,6.0,6.0,45,0.00,,,0.00,Wunderground v.1.15,2013-07-03 18:25:00,
2013-07-03 13:30:00,87.8,65.7,29.99,North,8,7.0,7.0,48,0.00,,,0.00,Wunderground v.1.15,2013-07-03 18:30:00,
2013-07-03 13:35:00,88.0,65.2,30.00,NE,36,6.0,7.0,47,0.00,,,0.00,Wunderground v.1.15,2013-07-03 18:35:00,
2013-07-03 13:40:00,88.6,67.0,29.99,SE,131,4.0,7.0,49,0.00,,,0.00,Wunderground v.1.15,2013-07-03 18:40:00,
2013-07-03 13:45:00,88.0,65.2,29.99,ENE,66,4.0,7.0,47,0.00,,,0.00,Wunderground v.1.15,2013-07-03 18:45:00,
2013-07-03 13:55:00,88.3,64.9,29.98,NE,53,5.0,9.0,46,0.00,,,0.00,Wunderground v.1.15,2013-07-03 18:55:00,
2013-07-03 14:00:00,88.7,63.3,29.98,NNE,24,6.0,6.0,43,0.00,,,0.00,Wunderground v.1.15,2013-07-03 19:00:00,
2013-07-03 14:10:00,88.6,65.8,29.98,NNE,30,5.0,5.0,47,0.00,,,0.00,Wunderground v.1.15,2013-07-03 19:10:00,
2013-07-03 14:20:00,89.1,65.6,29.98,NE,41,5.0,5.0,46,0.00,,,0.00,Wunderground v.1.15,2013-07-03 19:20:00,
2013-07-03 14:25:00,89.1,65.0,29.98,NNE,18,5.0,8.0,45,0.00,,,0.00,Wunderground v.1.15,2013-07-03 19:25:00,
2013-07-03 14:30:00,89.2,65.1,29.97,North,349,5.0,5.0,45,0.00,,,0.00,Wunderground v.1.15,2013-07-03 19:30:00,
2013-07-03 14:45:00,89.1,65.0,29.97,ENE,75,5.0,5.0,45,0.00,,,0.00,Wunderground v.1.15,2013-07-03 19:45:00,
2013-07-03 14:50:00,89.2,64.4,29.97,East,81,6.0,8.0,44,0.00,,,0.00,Wunderground v.1.15,2013-07-03 19:50:00,
2013-07-03 15:00:00,89.2,65.7,29.96,North,354,6.0,6.0,46,0.00,,,0.00,Wunderground v.1.15,2013-07-03 20:00:00,
2013-07-03 15:05:00,89.6,65.4,29.96,NW,326,6.0,8.0,45,0.00,,,0.00,Wunderground v.1.15,2013-07-03 20:05:00,
2013-07-03 15:10:00,89.7,64.2,29.96,NW,307,6.0,6.0,43,0.00,,,0.00,Wunderground v.1.15,2013-07-03 20:10:00,
2013-07-03 15:15:00,89.7,64.2,29.96,NNW,338,7.0,7.0,43,0.00,,,0.00,Wunderground v.1.15,2013-07-03 20:15:00,
2013-07-03 15:25:00,89.4,60.5,29.96,NNE,25,6.0,7.0,38,0.00,,,0.00,Wunderground v.1.15,2013-07-03 20:25:00,
2013-07-03 15:30:00,89.6,59.9,29.96,North,352,7.0,7.0,37,0.00,,,0.00,Wunderground v.1.15,2013-07-03 20:30:00,
2013-07-03 15:35:00,89.9,62.3,29.96,East,98,6.0,7.0,40,0.00,,,0.00,Wunderground v.1.15,2013-07-03 20:35:00,
2013-07-03 15:40:00,90.1,63.2,29.96,East,92,4.0,4.0,41,0.00,,,0.00,Wunderground v.1.15,2013-07-03 20:40:00,
2013-07-03 15:45:00,89.9,61.6,29.96,ENE,62,4.0,6.0,39,0.00,,,0.00,Wunderground v.1.15,2013-07-03 20:45:00,
2013-07-03 15:55:00,89.3,62.5,29.95,NE,50,5.0,6.0,41,0.00,,,0.00,Wunderground v.1.15,2013-07-03 20:55:00,
2013-07-03 16:05:00,89.4,64.6,29.95,East,99,5.0,6.0,44,0.00,,,0.00,Wunderground v.1.15,2013-07-03 21:05:00,
2013-07-03 16:10:00,89.5,64.0,29.95,NNW,338,5.0,5.0,43,0.00,,,0.00,Wunderground v.1.15,2013-07-03 21:10:00,
2013-07-03 16:15:00,89.7,63.6,29.95,NW,324,5.0,9.0,42,0.00,,,0.00,Wunderground v.1.15,2013-07-03 21:15:00,
2013-07-03 16:20:00,90.4,63.5,29.95,NE,41,5.0,5.0,41,0.00,,,0.00,Wunderground v.1.15,2013-07-03 21:20:00,
2013-07-03 16:25:00,89.9,64.4,29.95,NE,41,5.0,5.0,43,0.00,,,0.00,Wunderground v.1.15,2013-07-03 21:25:00,
2013-07-03 16:30:00,89.6,62.8,29.95,NE,37,5.0,6.0,41,0.00,,,0.00,Wunderground v.1.15,2013-07-03 21:30:00,
2013-07-03 16:40:00,89.0,62.2,29.95,NE,51,7.0,10.0,41,0.00,,,0.00,Wunderground v.1.15,2013-07-03 21:40:00,
2013-07-03 16:45:00,88.8,62.1,29.95,NNE,25,8.0,10.0,41,0.00,,,0.00,Wunderground v.1.15,2013-07-03 21:45:00,
2013-07-03 16:50:00,88.8,60.7,29.95,North,4,8.0,8.0,39,0.00,,,0.00,Wunderground v.1.15,2013-07-03 21:50:00,
2013-07-03 17:00:00,89.2,59.5,29.95,NE,35,6.0,6.0,37,0.00,,,0.00,Wunderground v.1.15,2013-07-03 22:00:00,
2013-07-03 17:05:00,88.8,59.9,29.94,NNE,19,5.0,6.0,38,0.00,,,0.00,Wunderground v.1.15,2013-07-03 22:05:00,
2013-07-03 17:10:00,88.9,61.5,29.94,NNE,28,5.0,7.0,40,0.00,,,0.00,Wunderground v.1.15,2013-07-03 22:10:00,
2013-07-03 17:20:00,88.9,62.2,29.94,NE,37,5.0,5.0,41,0.00,,,0.00,Wunderground v.1.15,2013-07-03 22:20:00,
2013-07-03 17:30:00,88.8,62.7,29.94,NE,51,5.0,5.0,42,0.00,,,0.00,Wunderground v.1.15,2013-07-03 22:30:00,
2013-07-03 17:35:00,88.9,63.5,29.94,ENE,65,5.0,5.0,43,0.00,,,0.00,Wunderground v.1.15,2013-07-03 22:35:00,
2013-07-03 17:40:00,88.7,64.0,29.94,ESE,102,5.0,7.0,44,0.00,,,0.00,Wunderground v.1.15,2013-07-03 22:40:00,
2013-07-03 17:50:00,88.2,62.9,29.93,NE,40,6.0,6.0,43,0.00,,,0.00,Wunderground v.1.15,2013-07-03 22:50:00,
2013-07-03 17:55:00,87.9,63.3,29.93,NE,46,6.0,6.0,44,0.00,,,0.00,Wunderground v.1.15,2013-07-03 22:55:00,
2013-07-03 18:00:00,88.1,64.1,29.93,NE,37,5.0,6.0,45,0.00,,,0.00,Wunderground v.1.15,2013-07-03 23:00:00,
2013-07-03 18:05:00,88.1,64.1,29.93,ENE,59,5.0,6.0,45,0.00,,,0.00,Wunderground v.1.15,2013-07-03 23:05:00,
2013-07-03 18:10:00,88.1,65.3,29.93,ENE,72,4.0,4.0,47,0.00,,,0.00,Wunderground v.1.15,2013-07-03 23:10:00,
2013-07-03 18:20:00,87.7,63.7,29.92,ENE,61,6.0,6.0,45,0.00,,,0.00,Wunderground v.1.15,2013-07-03 23:20:00,
2013-07-03 18:31:00,87.7,62.4,29.93,East,94,5.0,5.0,43,0.00,,,0.00,Wunderground v.1.15,2013-07-03 23:31:00,
2013-07-03 18:36:00,87.4,61.5,29.93,NE,41,4.0,5.0,42,0.00,,,0.00,Wunderground v.1.15,2013-07-03 23:36:00,
2013-07-03 18:45:00,86.3,67.7,29.93,East,101,5.0,10.0,54,0.00,,,0.00,Wunderground v.1.15,2013-07-03 23:45:00,
2013-07-03 18:55:00,84.2,69.3,29.93,ESE,110,7.0,7.0,61,0.00,,,0.00,Wunderground v.1.15,2013-07-03 23:55:00,
2013-07-03 19:00:00,83.7,69.8,29.93,ESE,117,7.0,8.0,63,0.00,,,0.00,Wunderground v.1.15,2013-07-04 00:00:00,
2013-07-03 19:05:00,83.3,69.8,29.93,East,85,7.0,8.0,64,0.00,,,0.00,Wunderground v.1.15,2013-07-04 00:05:00,
2013-07-03 19:10:00,83.0,70.0,29.93,ESE,117,5.0,5.0,65,0.00,,,0.00,Wunderground v.1.15,2013-07-04 00:10:00,
2013-07-03 19:16:00,82.9,70.4,29.93,East,84,5.0,5.0,66,0.00,,,0.00,Wunderground v.1.15,2013-07-04 00:16:00,
2013-07-03 19:27:00,82.6,70.5,29.94,East,84,4.0,5.0,67,0.00,,,0.00,Wunderground v.1.15,2013-07-04 00:27:00,
2013-07-03 19:35:00,82.1,69.6,29.94,ESE,113,5.0,6.0,66,0.00,,,0.00,Wunderground v.1.15,2013-07-04 00:35:00,
2013-07-03 19:40:00,82.0,70.0,29.94,East,93,4.0,6.0,67,0.00,,,0.00,Wunderground v.1.15,2013-07-04 00:40:00,
2013-07-03 19:50:00,81.5,70.3,29.94,East,88,3.0,3.0,69,0.00,,,0.00,Wunderground v.1.15,2013-07-04 00:50:00,
2013-07-03 20:00:00,80.6,69.9,29.94,ENE,61,4.0,4.0,70,0.00,,,0.00,Wunderground v.1.15,2013-07-04 01:00:00,
2013-07-03 20:10:00,80.1,69.8,29.94,East,89,3.0,3.0,71,0.00,,,0.00,Wunderground v.1.15,2013-07-04 01:10:00,
2013-07-03 20:15:00,79.8,69.6,29.94,SE,136,3.0,3.0,71,0.00,,,0.00,Wunderground v.1.15,2013-07-04 01:15:00,
2013-07-03 20:20:00,79.6,69.8,29.94,ESE,103,3.0,4.0,72,0.00,,,0.00,Wunderground v.1.15,2013-07-04 01:20:00,
2013-07-03 20:25:00,79.4,70.0,29.95,ESE,112,3.0,4.0,73,0.00,,,0.00,Wunderground v.1.15,2013-07-04 01:25:00,
2013-07-03 20:30:00,79.2,69.8,29.95,East,95,2.0,2.0,73,0.00,,,0.00,Wunderground v.1.15,2013-07-04 01:30:00,
2013-07-03 20:35:00,79.1,70.1,29.95,ENE,60,1.0,2.0,74,0.00,,,0.00,Wunderground v.1.15,2013-07-04 01:35:00,
2013-07-03 20:45:00,78.9,69.9,29.95,NE,56,1.0,2.0,74,0.00,,,0.00,Wunderground v.1.15,2013-07-04 01:45:00,
2013-07-03 20:50:00,78.7,69.7,29.95,NNE,13,1.0,2.0,74,0.00,,,0.00,Wunderground v.1.15,2013-07-04 01:50:00,
2013-07-03 20:55:00,78.6,69.6,29.95,NNE,13,1.0,2.0,74,0.00,,,0.00,Wunderground v.1.15,2013-07-04 01:55:00,
2013-07-03 21:00:00,78.5,69.5,29.96,ENE,69,1.0,1.0,74,0.00,,,0.00,Wunderground v.1.15,2013-07-04 02:00:00,
2013-07-03 21:05:00,78.5,69.5,29.96,East,101,1.0,2.0,74,0.00,,,0.00,Wunderground v.1.15,2013-07-04 02:05:00,
2013-07-03 21:10:00,78.1,69.9,29.96,East,101,1.0,2.0,76,0.00,,,0.00,Wunderground v.1.15,2013-07-04 02:10:00,
2013-07-03 21:20:00,77.2,69.8,29.96,East,101,0.0,2.0,78,0.00,,,0.00,Wunderground v.1.15,2013-07-04 02:20:00,
2013-07-03 21:30:00,76.6,70.0,29.96,East,92,0.0,2.0,80,0.00,,,0.00,Wunderground v.1.15,2013-07-04 02:30:00,
2013-07-03 21:35:00,76.2,69.9,29.96,ESE,109,1.0,2.0,81,0.00,,,0.00,Wunderground v.1.15,2013-07-04 02:35:00,
2013-07-03 21:40:00,76.0,69.7,29.96,East,101,1.0,2.0,81,0.00,,,0.00,Wunderground v.1.15,2013-07-04 02:40:00,
2013-07-03 21:45:00,76.2,69.9,29.97,East,101,1.0,2.0,81,0.00,,,0.00,Wunderground v.1.15,2013-07-04 02:45:00,
2013-07-03 21:50:00,76.2,69.9,29.97,NE,50,1.0,1.0,81,0.00,,,0.00,Wunderground v.1.15,2013-07-04 02:50:00,
2013-07-03 21:55:00,76.2,69.6,29.97,North,356,1.0,2.0,80,0.00,,,0.00,Wunderground v.1.15,2013-07-04 02:55:00,
2013-07-03 22:00:00,76.2,69.6,29.97,North,358,1.0,2.0,80,0.00,,,0.00,Wunderground v.1.15,2013-07-04 03:00:00,
2013-07-03 22:10:00,76.2,69.6,29.97,North,6,1.0,2.0,80,0.00,,,0.00,Wunderground v.1.15,2013-07-04 03:10:00,
2013-07-03 22:15:00,76.3,69.7,29.97,NNE,13,1.0,2.0,80,0.00,,,0.00,Wunderground v.1.15,2013-07-04 03:15:00,
2013-07-03 22:20:00,76.3,69.7,29.97,NNE,13,1.0,1.0,80,0.00,,,0.00,Wunderground v.1.15,2013-07-04 03:20:00,
2013-07-03 22:25:00,76.3,69.7,29.98,NE,36,0.0,2.0,80,0.00,,,0.00,Wunderground v.1.15,2013-07-04 03:25:00,
2013-07-03 22:30:00,76.1,69.8,29.98,NNE,19,1.0,1.0,81,0.00,,,0.00,Wunderground v.1.15,2013-07-04 03:30:00,
2013-07-03 22:35:00,76.0,69.7,29.98,NNE,19,1.0,2.0,81,0.00,,,0.00,Wunderground v.1.15,2013-07-04 03:35:00,
2013-07-03 22:40:00,76.0,69.7,29.98,NNE,19,0.0,2.0,81,0.00,,,0.00,Wunderground v.1.15,2013-07-04 03:40:00,
2013-07-03 22:45:00,75.9,69.6,29.98,NNE,15,1.0,2.0,81,0.00,,,0.00,Wunderground v.1.15,2013-07-04 03:45:00,
2013-07-03 22:50:00,75.7,69.8,29.98,ENE,58,1.0,2.0,82,0.00,,,0.00,Wunderground v.1.15,2013-07-04 03:50:00,
2013-07-03 23:00:00,75.3,69.8,29.98,East,87,1.0,2.0,83,0.00,,,0.00,Wunderground v.1.15,2013-07-04 04:00:00,
2013-07-03 23:05:00,75.4,69.9,29.98,East,97,1.0,2.0,83,0.00,,,0.00,Wunderground v.1.15,2013-07-04 04:05:00,
2013-07-03 23:10:00,75.1,69.9,29.98,ENE,77,1.0,1.0,84,0.00,,,0.00,Wunderground v.1.15,2013-07-04 04:10:00,
2013-07-03 23:15:00,75.0,69.8,29.98,ENE,77,1.0,2.0,84,0.00,,,0.00,Wunderground v.1.15,2013-07-04 04:15:00,
2013-07-03 23:20:00,74.8,70.0,29.98,East,100,0.0,2.0,85,0.00,,,0.00,Wunderground v.1.15,2013-07-04 04:20:00,
2013-07-03 23:25:00,74.7,69.9,29.98,NNE,31,0.0,2.0,85,0.00,,,0.00,Wunderground v.1.15,2013-07-04 04:25:00,
2013-07-03 23:30:00,74.5,70.0,29.98,ESE,112,1.0,2.0,86,0.00,,,0.00,Wunderground v.1.15,2013-07-04 04:30:00,
2013-07-03 23:35:00,74.0,69.9,29.98,ESE,112,0.0,2.0,87,0.00,,,0.00,Wunderground v.1.15,2013-07-04 04:35:00,
2013-07-03 23:40:00,73.7,69.9,29.98,ESE,117,0.0,2.0,88,0.00,,,0.00,Wunderground v.1.15,2013-07-04 04:40:00,
2013-07-03 23:45:00,73.6,70.2,29.97,SE,127,0.0,2.0,89,0.00,,,0.00,Wunderground v.1.15,2013-07-04 04:45:00,
2013-07-03 23:50:00,73.3,69.9,29.98,SE,126,0.0,2.0,89,0.00,,,0.00,Wunderground v.1.15,2013-07-04 04:50:00,
2013-07-03 23:55:00,73.1,70.0,29.98,SE,127,0.0,2.0,90,0.00,,,0.00,Wunderground v.1.15,2013-07-04 04:55:00,